sensor_id;sensor_type;location;lat;lon;timestamp;temperature;humidity
2945;DHT22;1482;51.398;7.128;2023-11-19T00:02:07;11.20;99.90
2945;DHT22;1482;51.398;7.128;2023-11-19T00:04:36;11.20;99.90
2945;DHT22;1482;51.398;7.128;2023-11-19T00:07:02;11.20;99.90
2945;DHT22;1482;51.398;7.128;2023-11-19T00:09:29;11.30;99.90
2945;DHT22;1482;51.398;7.128;2023-11-19T00:11:55;11.30;99.90
2945;DHT22;1482;51.398;7.128;2023-11-19T00:14:21;11.40;99.90
2945;DHT22;1482;51.398;7.128;2023-11-19T00:16:46;11.40;99.90
2945;DHT22;1482;51.398;7.128;2023-11-19T00:19:12;11.40;99.90
2945;DHT22;1482;51.398;7.128;2023-11-19T00:21:37;11.50;99.90
2945;DHT22;1482;51.398;7.128;2023-11-19T00:24:03;11.50;99.90
2945;DHT22;1482;51.398;7.128;2023-11-19T00:26:29;11.60;99.90
2945;DHT22;1482;51.398;7.128;2023-11-19T00:28:55;11.60;99.90
2945;DHT22;1482;51.398;7.128;2023-11-19T00:31:21;11.60;99.90
2945;DHT22;1482;51.398;7.128;2023-11-19T00:33:47;11.70;99.90
2945;DHT22;1482;51.398;7.128;2023-11-19T00:36:12;11.80;99.90
2945;DHT22;1482;51.398;7.128;2023-11-19T00:38:38;11.80;99.90
2945;DHT22;1482;51.398;7.128;2023-11-19T00:41:04;11.90;99.90
2945;DHT22;1482;51.398;7.128;2023-11-19T00:43:29;11.90;99.90
2945;DHT22;1482;51.398;7.128;2023-11-19T00:45:55;12.00;99.90
2945;DHT22;1482;51.398;7.128;2023-11-19T00:48:20;12.00;99.90
2945;DHT22;1482;51.398;7.128;2023-11-19T00:50:46;12.00;99.90
2945;DHT22;1482;51.398;7.128;2023-11-19T00:53:12;12.10;99.90
2945;DHT22;1482;51.398;7.128;2023-11-19T00:55:37;12.10;99.90
2945;DHT22;1482;51.398;7.128;2023-11-19T00:58:03;12.10;99.90
2945;DHT22;1482;51.398;7.128;2023-11-19T01:00:28;12.10;99.90
2945;DHT22;1482;51.398;7.128;2023-11-19T01:02:54;12.10;99.90
2945;DHT22;1482;51.398;7.128;2023-11-19T01:05:22;12.20;99.90
2945;DHT22;1482;51.398;7.128;2023-11-19T01:07:48;12.20;99.90
2945;DHT22;1482;51.398;7.128;2023-11-19T01:10:14;12.20;99.90
2945;DHT22;1482;51.398;7.128;2023-11-19T01:12:41;12.20;99.90
2945;DHT22;1482;51.398;7.128;2023-11-19T01:15:07;12.20;99.90
2945;DHT22;1482;51.398;7.128;2023-11-19T01:17:33;12.20;99.90
2945;DHT22;1482;51.398;7.128;2023-11-19T01:19:59;12.20;99.90
2945;DHT22;1482;51.398;7.128;2023-11-19T01:22:24;12.30;99.90
2945;DHT22;1482;51.398;7.128;2023-11-19T01:24:50;12.30;99.90
2945;DHT22;1482;51.398;7.128;2023-11-19T01:27:17;12.30;99.90
2945;DHT22;1482;51.398;7.128;2023-11-19T01:29:43;12.30;99.90
2945;DHT22;1482;51.398;7.128;2023-11-19T01:32:08;12.30;99.90
2945;DHT22;1482;51.398;7.128;2023-11-19T01:34:34;12.40;99.90
2945;DHT22;1482;51.398;7.128;2023-11-19T01:37:00;12.40;99.90
2945;DHT22;1482;51.398;7.128;2023-11-19T01:39:25;12.40;99.90
2945;DHT22;1482;51.398;7.128;2023-11-19T01:41:51;12.40;99.90
2945;DHT22;1482;51.398;7.128;2023-11-19T01:44:17;12.40;99.90
2945;DHT22;1482;51.398;7.128;2023-11-19T01:46:45;12.40;99.90
2945;DHT22;1482;51.398;7.128;2023-11-19T01:49:16;12.40;99.90
2945;DHT22;1482;51.398;7.128;2023-11-19T01:51:43;12.40;99.90
2945;DHT22;1482;51.398;7.128;2023-11-19T01:54:08;12.40;99.90
2945;DHT22;1482;51.398;7.128;2023-11-19T01:56:35;12.40;99.90
2945;DHT22;1482;51.398;7.128;2023-11-19T01:59:01;12.50;99.90
2945;DHT22;1482;51.398;7.128;2023-11-19T02:01:27;12.50;99.90
2945;DHT22;1482;51.398;7.128;2023-11-19T02:03:53;12.60;99.90
2945;DHT22;1482;51.398;7.128;2023-11-19T02:06:19;12.50;99.90
2945;DHT22;1482;51.398;7.128;2023-11-19T02:08:44;12.60;99.90
2945;DHT22;1482;51.398;7.128;2023-11-19T02:11:11;12.60;99.90
2945;DHT22;1482;51.398;7.128;2023-11-19T02:13:37;12.60;99.90
2945;DHT22;1482;51.398;7.128;2023-11-19T02:16:04;12.70;99.90
2945;DHT22;1482;51.398;7.128;2023-11-19T02:18:30;12.70;99.90
2945;DHT22;1482;51.398;7.128;2023-11-19T02:20:59;12.70;99.90
2945;DHT22;1482;51.398;7.128;2023-11-19T02:23:27;12.70;99.90
2945;DHT22;1482;51.398;7.128;2023-11-19T02:28:23;12.60;99.90
2945;DHT22;1482;51.398;7.128;2023-11-19T02:30:48;12.60;99.90
2945;DHT22;1482;51.398;7.128;2023-11-19T02:33:14;12.70;99.90
2945;DHT22;1482;51.398;7.128;2023-11-19T02:35:40;12.70;99.90
2945;DHT22;1482;51.398;7.128;2023-11-19T02:38:06;12.60;99.90
2945;DHT22;1482;51.398;7.128;2023-11-19T02:40:33;12.70;99.90
2945;DHT22;1482;51.398;7.128;2023-11-19T02:42:58;12.70;99.90
2945;DHT22;1482;51.398;7.128;2023-11-19T02:45:25;12.70;99.90
2945;DHT22;1482;51.398;7.128;2023-11-19T02:47:51;12.80;99.90
2945;DHT22;1482;51.398;7.128;2023-11-19T02:50:19;12.70;99.90
2945;DHT22;1482;51.398;7.128;2023-11-19T02:52:52;12.70;99.90
2945;DHT22;1482;51.398;7.128;2023-11-19T02:55:18;12.80;99.90
2945;DHT22;1482;51.398;7.128;2023-11-19T02:57:44;12.80;99.90
2945;DHT22;1482;51.398;7.128;2023-11-19T03:02:43;12.80;99.90
2945;DHT22;1482;51.398;7.128;2023-11-19T03:05:13;12.90;99.90
2945;DHT22;1482;51.398;7.128;2023-11-19T03:07:41;12.90;99.90
2945;DHT22;1482;51.398;7.128;2023-11-19T03:10:08;13.00;99.90
2945;DHT22;1482;51.398;7.128;2023-11-19T03:12:34;13.00;99.90
2945;DHT22;1482;51.398;7.128;2023-11-19T03:15:00;13.00;99.90
2945;DHT22;1482;51.398;7.128;2023-11-19T03:17:26;13.00;99.90
2945;DHT22;1482;51.398;7.128;2023-11-19T03:19:53;12.90;99.90
2945;DHT22;1482;51.398;7.128;2023-11-19T03:22:18;13.00;99.90
2945;DHT22;1482;51.398;7.128;2023-11-19T03:24:44;13.00;99.90
2945;DHT22;1482;51.398;7.128;2023-11-19T03:27:09;13.00;99.90
2945;DHT22;1482;51.398;7.128;2023-11-19T03:29:35;13.00;99.90
2945;DHT22;1482;51.398;7.128;2023-11-19T03:32:01;12.90;99.90
2945;DHT22;1482;51.398;7.128;2023-11-19T03:34:26;13.00;99.90
2945;DHT22;1482;51.398;7.128;2023-11-19T03:36:52;13.00;99.90
2945;DHT22;1482;51.398;7.128;2023-11-19T03:39:17;13.00;99.90
2945;DHT22;1482;51.398;7.128;2023-11-19T03:41:45;13.00;99.90
2945;DHT22;1482;51.398;7.128;2023-11-19T03:44:12;13.00;99.90
2945;DHT22;1482;51.398;7.128;2023-11-19T03:46:38;13.00;99.90
2945;DHT22;1482;51.398;7.128;2023-11-19T03:49:03;13.00;99.90
2945;DHT22;1482;51.398;7.128;2023-11-19T03:51:29;13.00;99.90
2945;DHT22;1482;51.398;7.128;2023-11-19T03:53:55;13.00;99.90
2945;DHT22;1482;51.398;7.128;2023-11-19T03:56:20;13.00;99.90
2945;DHT22;1482;51.398;7.128;2023-11-19T03:58:46;13.10;99.90
2945;DHT22;1482;51.398;7.128;2023-11-19T04:01:12;13.10;99.90
2945;DHT22;1482;51.398;7.128;2023-11-19T04:03:40;13.00;99.90
2945;DHT22;1482;51.398;7.128;2023-11-19T04:06:06;13.00;99.90
2945;DHT22;1482;51.398;7.128;2023-11-19T04:08:32;13.00;99.90
2945;DHT22;1482;51.398;7.128;2023-11-19T04:10:57;13.00;99.90
2945;DHT22;1482;51.398;7.128;2023-11-19T04:13:23;12.90;99.90
2945;DHT22;1482;51.398;7.128;2023-11-19T04:15:50;12.80;99.90
2945;DHT22;1482;51.398;7.128;2023-11-19T04:18:15;12.80;99.90
2945;DHT22;1482;51.398;7.128;2023-11-19T04:20:41;12.70;99.90
2945;DHT22;1482;51.398;7.128;2023-11-19T04:23:08;12.60;99.90
2945;DHT22;1482;51.398;7.128;2023-11-19T04:25:35;12.60;99.90
2945;DHT22;1482;51.398;7.128;2023-11-19T04:28:00;12.50;99.90
2945;DHT22;1482;51.398;7.128;2023-11-19T04:30:26;12.50;99.90
2945;DHT22;1482;51.398;7.128;2023-11-19T04:32:51;12.50;99.90
2945;DHT22;1482;51.398;7.128;2023-11-19T04:35:17;12.50;99.90
2945;DHT22;1482;51.398;7.128;2023-11-19T04:37:44;12.50;99.90
2945;DHT22;1482;51.398;7.128;2023-11-19T04:40:10;12.40;99.90
2945;DHT22;1482;51.398;7.128;2023-11-19T04:42:39;12.40;99.90
2945;DHT22;1482;51.398;7.128;2023-11-19T04:45:08;12.40;99.90
2945;DHT22;1482;51.398;7.128;2023-11-19T04:47:36;12.40;99.90
2945;DHT22;1482;51.398;7.128;2023-11-19T04:50:02;12.40;99.90
2945;DHT22;1482;51.398;7.128;2023-11-19T04:52:27;12.30;99.90
2945;DHT22;1482;51.398;7.128;2023-11-19T04:54:53;12.30;99.90
2945;DHT22;1482;51.398;7.128;2023-11-19T04:57:18;12.30;99.90
2945;DHT22;1482;51.398;7.128;2023-11-19T04:59:44;12.30;99.90
2945;DHT22;1482;51.398;7.128;2023-11-19T05:02:10;12.30;99.90
2945;DHT22;1482;51.398;7.128;2023-11-19T05:04:36;12.30;99.90
2945;DHT22;1482;51.398;7.128;2023-11-19T05:07:03;12.30;99.90
2945;DHT22;1482;51.398;7.128;2023-11-19T05:09:28;12.30;99.90
2945;DHT22;1482;51.398;7.128;2023-11-19T05:11:54;12.30;99.90
2945;DHT22;1482;51.398;7.128;2023-11-19T05:14:20;12.20;99.90
2945;DHT22;1482;51.398;7.128;2023-11-19T05:16:46;12.30;99.90
2945;DHT22;1482;51.398;7.128;2023-11-19T05:19:12;12.30;99.90
2945;DHT22;1482;51.398;7.128;2023-11-19T05:21:37;12.30;99.90
2945;DHT22;1482;51.398;7.128;2023-11-19T05:24:03;12.40;99.90
2945;DHT22;1482;51.398;7.128;2023-11-19T05:26:30;12.40;99.90
2945;DHT22;1482;51.398;7.128;2023-11-19T05:28:55;12.40;99.90
2945;DHT22;1482;51.398;7.128;2023-11-19T05:31:21;12.40;99.90
2945;DHT22;1482;51.398;7.128;2023-11-19T05:33:47;12.40;99.90
2945;DHT22;1482;51.398;7.128;2023-11-19T05:36:13;12.40;76.00
2945;DHT22;1482;51.398;7.128;2023-11-19T05:38:39;12.30;58.70
2945;DHT22;1482;51.398;7.128;2023-11-19T05:41:05;12.30;99.90
2945;DHT22;1482;51.398;7.128;2023-11-19T05:43:31;12.30;99.90
2945;DHT22;1482;51.398;7.128;2023-11-19T05:45:56;12.30;99.90
2945;DHT22;1482;51.398;7.128;2023-11-19T05:48:22;12.30;99.90
2945;DHT22;1482;51.398;7.128;2023-11-19T05:50:48;12.40;99.90
2945;DHT22;1482;51.398;7.128;2023-11-19T05:53:15;12.40;99.90
2945;DHT22;1482;51.398;7.128;2023-11-19T05:55:41;12.40;51.90
2945;DHT22;1482;51.398;7.128;2023-11-19T05:58:21;12.40;1.00
2945;DHT22;1482;51.398;7.128;2023-11-19T06:00:47;12.50;1.00
2945;DHT22;1482;51.398;7.128;2023-11-19T06:03:13;12.40;1.00
2945;DHT22;1482;51.398;7.128;2023-11-19T06:05:38;12.40;1.00
2945;DHT22;1482;51.398;7.128;2023-11-19T06:08:04;12.50;1.00
2945;DHT22;1482;51.398;7.128;2023-11-19T06:10:32;12.50;1.00
2945;DHT22;1482;51.398;7.128;2023-11-19T06:12:58;12.50;1.00
2945;DHT22;1482;51.398;7.128;2023-11-19T06:15:28;12.50;99.90
2945;DHT22;1482;51.398;7.128;2023-11-19T06:17:53;12.50;99.90
2945;DHT22;1482;51.398;7.128;2023-11-19T06:20:20;12.40;99.90
2945;DHT22;1482;51.398;7.128;2023-11-19T06:22:46;12.40;99.90
2945;DHT22;1482;51.398;7.128;2023-11-19T06:25:12;12.40;99.90
2945;DHT22;1482;51.398;7.128;2023-11-19T06:27:42;12.40;99.90
2945;DHT22;1482;51.398;7.128;2023-11-19T06:30:09;12.40;99.90
2945;DHT22;1482;51.398;7.128;2023-11-19T06:32:35;12.30;99.90
2945;DHT22;1482;51.398;7.128;2023-11-19T06:35:00;12.30;99.90
2945;DHT22;1482;51.398;7.128;2023-11-19T06:37:26;12.30;99.90
2945;DHT22;1482;51.398;7.128;2023-11-19T06:39:52;12.20;1.00
2945;DHT22;1482;51.398;7.128;2023-11-19T06:42:18;12.20;1.00
2945;DHT22;1482;51.398;7.128;2023-11-19T06:44:43;12.20;99.90
2945;DHT22;1482;51.398;7.128;2023-11-19T06:47:09;12.20;99.90
2945;DHT22;1482;51.398;7.128;2023-11-19T06:49:35;12.20;71.50
2945;DHT22;1482;51.398;7.128;2023-11-19T06:52:00;12.20;99.90
2945;DHT22;1482;51.398;7.128;2023-11-19T06:54:26;12.20;56.70
2945;DHT22;1482;51.398;7.128;2023-11-19T06:56:51;12.10;1.00
2945;DHT22;1482;51.398;7.128;2023-11-19T06:59:17;12.10;57.00
2945;DHT22;1482;51.398;7.128;2023-11-19T07:01:42;12.10;1.00
2945;DHT22;1482;51.398;7.128;2023-11-19T07:04:11;12.10;1.00
2945;DHT22;1482;51.398;7.128;2023-11-19T07:06:38;12.10;54.60
2945;DHT22;1482;51.398;7.128;2023-11-19T07:09:04;12.10;60.10
2945;DHT22;1482;51.398;7.128;2023-11-19T07:11:38;12.00;1.00
2945;DHT22;1482;51.398;7.128;2023-11-19T07:14:05;12.00;1.00
2945;DHT22;1482;51.398;7.128;2023-11-19T07:16:35;12.00;1.00
2945;DHT22;1482;51.398;7.128;2023-11-19T07:19:03;12.00;1.00
2945;DHT22;1482;51.398;7.128;2023-11-19T07:21:29;12.00;99.90
2945;DHT22;1482;51.398;7.128;2023-11-19T07:23:57;12.00;99.90
2945;DHT22;1482;51.398;7.128;2023-11-19T07:26:22;12.00;99.90
2945;DHT22;1482;51.398;7.128;2023-11-19T07:28:49;12.00;99.90
2945;DHT22;1482;51.398;7.128;2023-11-19T07:31:15;12.00;99.90
2945;DHT22;1482;51.398;7.128;2023-11-19T07:33:40;12.10;99.90
2945;DHT22;1482;51.398;7.128;2023-11-19T07:36:08;12.20;99.90
2945;DHT22;1482;51.398;7.128;2023-11-19T07:38:34;12.20;95.60
2945;DHT22;1482;51.398;7.128;2023-11-19T07:41:00;12.30;1.00
2945;DHT22;1482;51.398;7.128;2023-11-19T07:43:26;12.50;1.00
2945;DHT22;1482;51.398;7.128;2023-11-19T07:45:51;12.70;1.00
2945;DHT22;1482;51.398;7.128;2023-11-19T07:48:17;13.20;1.00
2945;DHT22;1482;51.398;7.128;2023-11-19T07:50:48;13.50;1.00
2945;DHT22;1482;51.398;7.128;2023-11-19T07:53:18;14.10;99.90
2945;DHT22;1482;51.398;7.128;2023-11-19T07:55:44;14.60;99.90
2945;DHT22;1482;51.398;7.128;2023-11-19T07:58:10;15.00;99.90
2945;DHT22;1482;51.398;7.128;2023-11-19T08:00:37;15.30;99.90
2945;DHT22;1482;51.398;7.128;2023-11-19T08:03:03;15.50;99.90
2945;DHT22;1482;51.398;7.128;2023-11-19T08:05:29;16.00;99.90
2945;DHT22;1482;51.398;7.128;2023-11-19T08:07:55;16.50;99.90
2945;DHT22;1482;51.398;7.128;2023-11-19T08:10:20;16.90;99.90
2945;DHT22;1482;51.398;7.128;2023-11-19T08:12:46;17.40;99.90
2945;DHT22;1482;51.398;7.128;2023-11-19T08:15:12;17.90;99.90
2945;DHT22;1482;51.398;7.128;2023-11-19T08:17:38;18.00;99.90
2945;DHT22;1482;51.398;7.128;2023-11-19T08:20:04;18.00;99.90
2945;DHT22;1482;51.398;7.128;2023-11-19T08:22:30;18.40;99.90
2945;DHT22;1482;51.398;7.128;2023-11-19T08:24:56;18.70;99.90
2945;DHT22;1482;51.398;7.128;2023-11-19T08:27:22;19.00;99.90
2945;DHT22;1482;51.398;7.128;2023-11-19T08:29:54;18.80;99.90
2945;DHT22;1482;51.398;7.128;2023-11-19T08:32:22;18.20;99.90
2945;DHT22;1482;51.398;7.128;2023-11-19T08:34:48;17.70;99.90
2945;DHT22;1482;51.398;7.128;2023-11-19T08:37:14;17.30;99.90
2945;DHT22;1482;51.398;7.128;2023-11-19T08:39:39;16.70;99.90
2945;DHT22;1482;51.398;7.128;2023-11-19T08:42:06;16.40;99.90
2945;DHT22;1482;51.398;7.128;2023-11-19T08:44:32;15.60;99.90
2945;DHT22;1482;51.398;7.128;2023-11-19T08:46:57;15.20;99.90
2945;DHT22;1482;51.398;7.128;2023-11-19T08:49:23;14.80;99.90
2945;DHT22;1482;51.398;7.128;2023-11-19T08:51:49;14.60;99.90
2945;DHT22;1482;51.398;7.128;2023-11-19T08:54:14;14.30;99.90
2945;DHT22;1482;51.398;7.128;2023-11-19T08:56:40;14.40;99.90
2945;DHT22;1482;51.398;7.128;2023-11-19T08:59:05;14.60;99.90
2945;DHT22;1482;51.398;7.128;2023-11-19T09:01:31;14.60;99.90
2945;DHT22;1482;51.398;7.128;2023-11-19T09:03:56;14.50;99.90
2945;DHT22;1482;51.398;7.128;2023-11-19T09:06:23;14.40;99.90
2945;DHT22;1482;51.398;7.128;2023-11-19T09:08:48;14.40;99.90
2945;DHT22;1482;51.398;7.128;2023-11-19T09:11:14;14.40;99.90
2945;DHT22;1482;51.398;7.128;2023-11-19T09:13:39;14.40;99.90
2945;DHT22;1482;51.398;7.128;2023-11-19T09:16:05;14.60;99.90
2945;DHT22;1482;51.398;7.128;2023-11-19T09:18:31;14.90;99.90
2945;DHT22;1482;51.398;7.128;2023-11-19T09:20:57;14.80;99.90
2945;DHT22;1482;51.398;7.128;2023-11-19T09:23:23;14.80;99.90
2945;DHT22;1482;51.398;7.128;2023-11-19T09:25:50;15.00;99.90
2945;DHT22;1482;51.398;7.128;2023-11-19T09:28:16;15.10;99.90
2945;DHT22;1482;51.398;7.128;2023-11-19T09:30:42;15.10;99.90
2945;DHT22;1482;51.398;7.128;2023-11-19T09:33:07;15.00;99.90
2945;DHT22;1482;51.398;7.128;2023-11-19T09:35:33;14.70;99.90
2945;DHT22;1482;51.398;7.128;2023-11-19T09:37:58;14.80;99.90
2945;DHT22;1482;51.398;7.128;2023-11-19T09:40:24;14.90;99.90
2945;DHT22;1482;51.398;7.128;2023-11-19T09:42:50;14.80;99.90
2945;DHT22;1482;51.398;7.128;2023-11-19T09:45:17;14.60;99.90
2945;DHT22;1482;51.398;7.128;2023-11-19T09:47:46;14.40;99.90
2945;DHT22;1482;51.398;7.128;2023-11-19T09:50:18;14.40;99.90
2945;DHT22;1482;51.398;7.128;2023-11-19T09:52:45;14.40;99.90
2945;DHT22;1482;51.398;7.128;2023-11-19T09:55:11;14.30;99.90
2945;DHT22;1482;51.398;7.128;2023-11-19T09:57:39;14.20;99.90
2945;DHT22;1482;51.398;7.128;2023-11-19T10:00:06;14.10;99.90
2945;DHT22;1482;51.398;7.128;2023-11-19T10:02:33;14.00;99.90
2945;DHT22;1482;51.398;7.128;2023-11-19T10:05:04;14.10;99.90
2945;DHT22;1482;51.398;7.128;2023-11-19T10:07:34;14.30;99.90
2945;DHT22;1482;51.398;7.128;2023-11-19T10:10:01;14.50;99.90
2945;DHT22;1482;51.398;7.128;2023-11-19T10:12:27;14.40;99.90
2945;DHT22;1482;51.398;7.128;2023-11-19T10:14:55;14.30;99.90
2945;DHT22;1482;51.398;7.128;2023-11-19T10:17:21;14.20;99.90
2945;DHT22;1482;51.398;7.128;2023-11-19T10:19:47;14.20;99.90
2945;DHT22;1482;51.398;7.128;2023-11-19T10:22:12;14.20;99.90
2945;DHT22;1482;51.398;7.128;2023-11-19T10:24:40;14.20;99.90
2945;DHT22;1482;51.398;7.128;2023-11-19T10:27:09;14.30;99.90
2945;DHT22;1482;51.398;7.128;2023-11-19T10:29:38;14.30;99.90
2945;DHT22;1482;51.398;7.128;2023-11-19T10:32:04;14.20;99.90
2945;DHT22;1482;51.398;7.128;2023-11-19T10:34:30;14.10;99.90
2945;DHT22;1482;51.398;7.128;2023-11-19T10:36:56;13.90;99.90
2945;DHT22;1482;51.398;7.128;2023-11-19T10:39:21;13.90;99.90
2945;DHT22;1482;51.398;7.128;2023-11-19T10:41:49;13.80;99.90
2945;DHT22;1482;51.398;7.128;2023-11-19T10:44:34;13.80;99.90
2945;DHT22;1482;51.398;7.128;2023-11-19T10:47:06;13.80;99.90
2945;DHT22;1482;51.398;7.128;2023-11-19T10:49:33;13.70;99.90
2945;DHT22;1482;51.398;7.128;2023-11-19T10:52:00;13.80;99.90
2945;DHT22;1482;51.398;7.128;2023-11-19T10:54:27;13.70;99.90
2945;DHT22;1482;51.398;7.128;2023-11-19T10:56:59;13.60;99.90
2945;DHT22;1482;51.398;7.128;2023-11-19T10:59:26;13.60;99.90
2945;DHT22;1482;51.398;7.128;2023-11-19T11:01:53;13.70;99.90
2945;DHT22;1482;51.398;7.128;2023-11-19T11:04:25;13.70;99.90
2945;DHT22;1482;51.398;7.128;2023-11-19T11:06:54;13.80;99.90
2945;DHT22;1482;51.398;7.128;2023-11-19T11:09:20;13.70;99.90
2945;DHT22;1482;51.398;7.128;2023-11-19T11:11:47;13.70;99.90
2945;DHT22;1482;51.398;7.128;2023-11-19T11:14:13;13.70;99.90
2945;DHT22;1482;51.398;7.128;2023-11-19T11:16:43;13.70;99.90
2945;DHT22;1482;51.398;7.128;2023-11-19T11:19:10;13.80;99.90
2945;DHT22;1482;51.398;7.128;2023-11-19T11:21:37;13.80;99.90
2945;DHT22;1482;51.398;7.128;2023-11-19T11:30:06;13.90;99.90
2945;DHT22;1482;51.398;7.128;2023-11-19T11:37:49;14.10;99.90
2945;DHT22;1482;51.398;7.128;2023-11-19T11:40:15;14.20;99.90
2945;DHT22;1482;51.398;7.128;2023-11-19T11:42:46;14.20;99.90
2945;DHT22;1482;51.398;7.128;2023-11-19T11:45:13;14.30;99.90
2945;DHT22;1482;51.398;7.128;2023-11-19T11:50:18;14.50;99.90
2945;DHT22;1482;51.398;7.128;2023-11-19T11:57:56;14.90;99.90
2945;DHT22;1482;51.398;7.128;2023-11-19T12:00:41;15.00;99.90
2945;DHT22;1482;51.398;7.128;2023-11-19T12:03:07;15.10;99.90
2945;DHT22;1482;51.398;7.128;2023-11-19T12:05:42;14.90;99.90
2945;DHT22;1482;51.398;7.128;2023-11-19T12:08:09;14.70;99.90
2945;DHT22;1482;51.398;7.128;2023-11-19T12:10:46;14.70;99.90
2945;DHT22;1482;51.398;7.128;2023-11-19T12:13:15;14.60;99.90
2945;DHT22;1482;51.398;7.128;2023-11-19T12:18:23;14.60;99.90
2945;DHT22;1482;51.398;7.128;2023-11-19T12:20:50;14.70;99.90
2945;DHT22;1482;51.398;7.128;2023-11-19T12:23:15;14.80;99.90
2945;DHT22;1482;51.398;7.128;2023-11-19T12:25:41;14.80;99.90
2945;DHT22;1482;51.398;7.128;2023-11-19T12:28:12;14.70;99.90
2945;DHT22;1482;51.398;7.128;2023-11-19T12:30:37;14.80;99.90
2945;DHT22;1482;51.398;7.128;2023-11-19T12:33:08;14.80;99.90
2945;DHT22;1482;51.398;7.128;2023-11-19T12:35:42;14.80;99.90
2945;DHT22;1482;51.398;7.128;2023-11-19T12:38:18;14.70;99.90
2945;DHT22;1482;51.398;7.128;2023-11-19T12:40:43;14.80;99.90
2945;DHT22;1482;51.398;7.128;2023-11-19T12:43:09;14.80;99.90
2945;DHT22;1482;51.398;7.128;2023-11-19T12:45:36;14.90;99.90
2945;DHT22;1482;51.398;7.128;2023-11-19T12:48:05;14.70;99.90
2945;DHT22;1482;51.398;7.128;2023-11-19T12:50:51;14.60;99.90
2945;DHT22;1482;51.398;7.128;2023-11-19T12:53:17;14.50;99.90
2945;DHT22;1482;51.398;7.128;2023-11-19T12:55:43;14.50;99.90
2945;DHT22;1482;51.398;7.128;2023-11-19T12:58:09;14.30;99.90
2945;DHT22;1482;51.398;7.128;2023-11-19T13:00:34;14.20;99.90
2945;DHT22;1482;51.398;7.128;2023-11-19T13:03:00;14.10;99.90
2945;DHT22;1482;51.398;7.128;2023-11-19T13:05:33;14.10;99.90
2945;DHT22;1482;51.398;7.128;2023-11-19T13:10:29;13.70;99.90
2945;DHT22;1482;51.398;7.128;2023-11-19T13:13:08;13.70;99.90
2945;DHT22;1482;51.398;7.128;2023-11-19T13:15:34;13.60;99.90
2945;DHT22;1482;51.398;7.128;2023-11-19T13:18:01;13.50;99.90
2945;DHT22;1482;51.398;7.128;2023-11-19T13:20:28;13.50;99.90
2945;DHT22;1482;51.398;7.128;2023-11-19T13:23:01;13.30;99.90
2945;DHT22;1482;51.398;7.128;2023-11-19T13:25:28;13.10;99.90
2945;DHT22;1482;51.398;7.128;2023-11-19T13:27:54;13.10;99.90
2945;DHT22;1482;51.398;7.128;2023-11-19T13:30:20;12.90;99.90
2945;DHT22;1482;51.398;7.128;2023-11-19T13:32:47;12.90;99.90
2945;DHT22;1482;51.398;7.128;2023-11-19T13:35:13;12.80;99.90
2945;DHT22;1482;51.398;7.128;2023-11-19T13:37:39;12.80;1.00
2945;DHT22;1482;51.398;7.128;2023-11-19T13:40:09;12.80;1.00
2945;DHT22;1482;51.398;7.128;2023-11-19T13:42:44;12.90;1.00
2945;DHT22;1482;51.398;7.128;2023-11-19T13:45:14;12.90;1.00
2945;DHT22;1482;51.398;7.128;2023-11-19T13:47:41;12.90;1.00
2945;DHT22;1482;51.398;7.128;2023-11-19T13:50:10;12.90;1.00
2945;DHT22;1482;51.398;7.128;2023-11-19T13:52:40;13.00;1.00
2945;DHT22;1482;51.398;7.128;2023-11-19T13:55:08;13.00;1.00
2945;DHT22;1482;51.398;7.128;2023-11-19T13:57:34;13.00;99.90
2945;DHT22;1482;51.398;7.128;2023-11-19T14:00:04;13.10;99.90
2945;DHT22;1482;51.398;7.128;2023-11-19T14:02:32;13.20;99.90
2945;DHT22;1482;51.398;7.128;2023-11-19T14:04:58;13.10;99.90
2945;DHT22;1482;51.398;7.128;2023-11-19T14:07:24;13.20;99.90
2945;DHT22;1482;51.398;7.128;2023-11-19T14:09:49;13.10;99.90
2945;DHT22;1482;51.398;7.128;2023-11-19T14:12:15;13.10;99.90
2945;DHT22;1482;51.398;7.128;2023-11-19T14:14:41;13.10;99.90
2945;DHT22;1482;51.398;7.128;2023-11-19T14:17:07;13.10;99.90
2945;DHT22;1482;51.398;7.128;2023-11-19T14:19:33;13.00;99.90
2945;DHT22;1482;51.398;7.128;2023-11-19T14:21:59;13.00;99.90
2945;DHT22;1482;51.398;7.128;2023-11-19T14:24:25;12.90;99.90
2945;DHT22;1482;51.398;7.128;2023-11-19T14:26:51;12.90;99.90
2945;DHT22;1482;51.398;7.128;2023-11-19T14:29:17;12.90;99.90
2945;DHT22;1482;51.398;7.128;2023-11-19T14:31:43;12.90;99.90
2945;DHT22;1482;51.398;7.128;2023-11-19T14:34:09;12.80;1.00
2945;DHT22;1482;51.398;7.128;2023-11-19T14:36:34;12.70;1.00
2945;DHT22;1482;51.398;7.128;2023-11-19T14:39:00;12.70;1.00
2945;DHT22;1482;51.398;7.128;2023-11-19T14:41:26;12.70;1.00
2945;DHT22;1482;51.398;7.128;2023-11-19T14:43:51;12.70;1.00
2945;DHT22;1482;51.398;7.128;2023-11-19T14:46:17;12.60;1.00
2945;DHT22;1482;51.398;7.128;2023-11-19T14:48:43;12.60;1.00
2945;DHT22;1482;51.398;7.128;2023-11-19T14:51:08;12.60;1.00
2945;DHT22;1482;51.398;7.128;2023-11-19T14:53:34;12.60;1.00
2945;DHT22;1482;51.398;7.128;2023-11-19T14:56:00;12.50;1.00
2945;DHT22;1482;51.398;7.128;2023-11-19T14:58:26;12.50;1.00
2945;DHT22;1482;51.398;7.128;2023-11-19T15:00:52;12.50;1.00
2945;DHT22;1482;51.398;7.128;2023-11-19T15:03:18;12.50;1.00
2945;DHT22;1482;51.398;7.128;2023-11-19T15:05:47;12.40;1.00
2945;DHT22;1482;51.398;7.128;2023-11-19T15:08:13;12.40;1.00
2945;DHT22;1482;51.398;7.128;2023-11-19T15:10:42;12.30;1.00
2945;DHT22;1482;51.398;7.128;2023-11-19T15:13:08;12.30;1.00
2945;DHT22;1482;51.398;7.128;2023-11-19T15:15:34;12.20;1.00
2945;DHT22;1482;51.398;7.128;2023-11-19T15:18:00;12.10;1.00
2945;DHT22;1482;51.398;7.128;2023-11-19T15:20:25;12.10;1.00
2945;DHT22;1482;51.398;7.128;2023-11-19T15:22:58;12.00;1.00
2945;DHT22;1482;51.398;7.128;2023-11-19T15:25:24;12.00;91.50
2945;DHT22;1482;51.398;7.128;2023-11-19T15:27:49;11.90;99.90
2945;DHT22;1482;51.398;7.128;2023-11-19T15:30:15;11.90;99.90
2945;DHT22;1482;51.398;7.128;2023-11-19T15:32:44;11.80;99.90
2945;DHT22;1482;51.398;7.128;2023-11-19T15:35:10;11.90;99.90
2945;DHT22;1482;51.398;7.128;2023-11-19T15:37:36;11.80;1.00
2945;DHT22;1482;51.398;7.128;2023-11-19T15:40:03;11.70;99.90
2945;DHT22;1482;51.398;7.128;2023-11-19T15:42:31;11.70;1.00
2945;DHT22;1482;51.398;7.128;2023-11-19T15:44:57;11.70;1.00
2945;DHT22;1482;51.398;7.128;2023-11-19T15:47:22;11.70;1.00
2945;DHT22;1482;51.398;7.128;2023-11-19T15:49:48;11.60;69.00
2945;DHT22;1482;51.398;7.128;2023-11-19T15:52:15;11.60;1.00
2945;DHT22;1482;51.398;7.128;2023-11-19T15:54:41;11.60;1.00
2945;DHT22;1482;51.398;7.128;2023-11-19T15:57:06;11.60;1.00
2945;DHT22;1482;51.398;7.128;2023-11-19T15:59:32;11.60;1.00
2945;DHT22;1482;51.398;7.128;2023-11-19T16:01:57;11.50;1.00
2945;DHT22;1482;51.398;7.128;2023-11-19T16:04:23;11.50;1.00
2945;DHT22;1482;51.398;7.128;2023-11-19T16:06:49;11.50;1.00
2945;DHT22;1482;51.398;7.128;2023-11-19T16:09:14;11.50;1.00
2945;DHT22;1482;51.398;7.128;2023-11-19T16:11:44;11.50;1.00
2945;DHT22;1482;51.398;7.128;2023-11-19T16:14:11;11.60;99.90
2945;DHT22;1482;51.398;7.128;2023-11-19T16:16:37;11.60;99.90
2945;DHT22;1482;51.398;7.128;2023-11-19T16:19:03;11.60;99.90
2945;DHT22;1482;51.398;7.128;2023-11-19T16:21:32;11.60;99.90
2945;DHT22;1482;51.398;7.128;2023-11-19T16:23:57;11.70;99.90
2945;DHT22;1482;51.398;7.128;2023-11-19T16:26:26;11.60;1.00
2945;DHT22;1482;51.398;7.128;2023-11-19T16:28:52;11.70;1.00
2945;DHT22;1482;51.398;7.128;2023-11-19T16:31:18;11.70;1.00